createdAt,value
2023-05-16T00:01:20.461Z,4.98
2023-05-16T00:03:47.208Z,5.04
2023-05-16T00:06:13.669Z,5.02
2023-05-16T00:08:40.437Z,4.92
2023-05-16T00:11:06.958Z,4.99
2023-05-16T00:13:33.450Z,4.94
2023-05-16T00:16:02.441Z,4.95
2023-05-16T00:18:28.925Z,5.00
2023-05-16T00:20:55.515Z,4.98
2023-05-16T00:23:23.009Z,4.95
2023-05-16T00:25:49.440Z,4.97
2023-05-16T00:28:16.799Z,5.02
2023-05-16T00:30:43.440Z,5.03
2023-05-16T00:33:10.018Z,5.02
2023-05-16T00:35:36.540Z,5.09
2023-05-16T00:38:03.097Z,4.85
2023-05-16T00:40:29.641Z,4.93
2023-05-16T00:42:56.098Z,4.89
2023-05-16T00:45:22.527Z,4.85
2023-05-16T00:47:49.100Z,4.87
2023-05-16T00:50:15.643Z,4.93
2023-05-16T00:52:42.129Z,4.98
2023-05-16T00:55:10.440Z,5.00
2023-05-16T00:57:37.967Z,4.98
2023-05-16T01:00:10.546Z,5.03
2023-05-16T01:02:37.065Z,5.04
2023-05-16T01:05:08.382Z,4.94
2023-05-16T01:07:37.796Z,4.91
2023-05-16T01:10:05.207Z,4.94
2023-05-16T01:12:48.316Z,4.89
2023-05-16T01:15:18.398Z,4.89
2023-05-16T01:18:02.534Z,4.96
2023-05-16T01:20:36.734Z,5.03
2023-05-16T01:23:08.819Z,5.03
2023-05-16T01:25:57.156Z,5.00
2023-05-16T01:28:23.832Z,5.02
2023-05-16T01:30:51.033Z,4.95
2023-05-16T01:33:17.463Z,4.91
2023-05-16T01:35:47.524Z,4.82
2023-05-16T01:38:23.207Z,4.77
2023-05-16T01:41:00.508Z,4.84
2023-05-16T01:43:35.836Z,4.92
2023-05-16T01:46:04.838Z,4.99
2023-05-16T01:48:35.616Z,4.99
2023-05-16T01:51:02.011Z,4.86
2023-05-16T01:53:29.918Z,4.95
2023-05-16T01:55:57.201Z,4.90
2023-05-16T01:58:26.535Z,4.94
2023-05-16T02:01:03.774Z,4.96
2023-05-16T08:42:09.154Z,6.69
2023-05-16T08:44:36.228Z,6.52
2023-05-16T08:47:18.434Z,6.72
2023-05-16T08:49:47.548Z,6.57
2023-05-16T08:52:14.161Z,6.54
2023-05-16T08:54:41.534Z,6.59
2023-05-16T09:00:11.908Z,6.44
2023-05-16T09:02:43.292Z,6.65
2023-05-16T09:05:11.954Z,6.53
2023-05-16T09:07:38.742Z,6.58
2023-05-16T09:10:07.159Z,6.83
2023-05-16T09:12:34.626Z,6.83
2023-05-16T09:18:06.229Z,6.46
2023-05-16T09:20:32.887Z,6.54
2023-05-16T09:23:00.554Z,7.00
2023-05-16T09:25:30.992Z,6.67
2023-05-16T09:27:59.449Z,6.77
2023-05-16T09:30:30.599Z,6.60
2023-05-16T09:32:57.349Z,6.71
2023-05-16T09:35:39.899Z,6.94
2023-05-16T09:38:15.181Z,7.14
2023-05-16T09:40:42.245Z,6.75
2023-05-16T09:43:08.900Z,6.75
2023-05-16T09:45:36.350Z,6.56
2023-05-16T09:48:08.360Z,6.61
2023-05-16T09:50:36.903Z,6.60
2023-05-16T09:53:03.856Z,6.64
2023-05-16T09:55:31.062Z,6.58
2023-05-16T09:57:57.828Z,6.60
2023-05-16T10:00:31.249Z,6.50
2023-05-16T10:02:58.444Z,6.53
2023-05-16T10:08:17.436Z,6.33
2023-05-16T10:10:44.097Z,6.31
2023-05-16T10:13:10.825Z,6.11
2023-05-16T10:15:38.413Z,6.37
2023-05-16T10:29:20.321Z,6.38
2023-05-16T11:08:35.635Z,6.29
2023-05-16T11:31:49.620Z,6.11
2023-05-16T12:03:14.535Z,6.32
